sensor_id;sensor_type;location;lat;lon;timestamp;pressure;altitude;pressure_sealevel;temperature;humidity
71915;BME280;60387;49.994;14.660;2023-07-16T00:00:00;97029.81;;;30.48;33.59
71915;BME280;60387;49.994;14.660;2023-07-16T00:02:33;97031.50;;;30.46;32.97
71915;BME280;60387;49.994;14.660;2023-07-16T00:05:06;97027.59;;;30.43;32.35
71915;BME280;60387;49.994;14.660;2023-07-16T00:07:40;97022.44;;;30.42;32.28
71915;BME280;60387;49.994;14.660;2023-07-16T00:10:13;97012.59;;;30.37;32.95
71915;BME280;60387;49.994;14.660;2023-07-16T00:12:47;97017.75;;;30.39;33.53
71915;BME280;60387;49.994;14.660;2023-07-16T00:15:20;97025.00;;;30.36;33.45
71915;BME280;60387;49.994;14.660;2023-07-16T00:17:53;97026.81;;;30.30;33.28
71915;BME280;60387;49.994;14.660;2023-07-16T00:20:27;97021.09;;;30.21;33.15
71915;BME280;60387;49.994;14.660;2023-07-16T00:23:00;97010.81;;;30.18;34.46
71915;BME280;60387;49.994;14.660;2023-07-16T00:25:33;96997.63;;;30.06;33.99
71915;BME280;60387;49.994;14.660;2023-07-16T00:28:07;97006.19;;;29.99;33.35
71915;BME280;60387;49.994;14.660;2023-07-16T00:30:40;96998.81;;;29.93;34.15
71915;BME280;60387;49.994;14.660;2023-07-16T00:33:13;97002.03;;;29.91;34.42
71915;BME280;60387;49.994;14.660;2023-07-16T00:35:50;96998.22;;;29.85;35.08
71915;BME280;60387;49.994;14.660;2023-07-16T00:38:23;96990.19;;;29.87;36.05
71915;BME280;60387;49.994;14.660;2023-07-16T00:40:57;96991.06;;;29.84;35.31
71915;BME280;60387;49.994;14.660;2023-07-16T00:43:30;96991.53;;;29.83;34.50
71915;BME280;60387;49.994;14.660;2023-07-16T00:46:03;96997.88;;;29.83;35.12
71915;BME280;60387;49.994;14.660;2023-07-16T00:48:37;96996.00;;;29.80;35.01
71915;BME280;60387;49.994;14.660;2023-07-16T00:51:10;97007.16;;;29.80;34.63
71915;BME280;60387;49.994;14.660;2023-07-16T00:53:44;97018.34;;;29.80;35.17
71915;BME280;60387;49.994;14.660;2023-07-16T00:56:18;97019.19;;;29.77;34.18
71915;BME280;60387;49.994;14.660;2023-07-16T00:58:52;97034.41;;;29.76;34.00
71915;BME280;60387;49.994;14.660;2023-07-16T01:01:25;97036.84;;;29.74;33.76
71915;BME280;60387;49.994;14.660;2023-07-16T01:03:58;97040.09;;;29.73;33.81
71915;BME280;60387;49.994;14.660;2023-07-16T01:06:38;97040.19;;;29.69;33.69
71915;BME280;60387;49.994;14.660;2023-07-16T01:11:47;97038.38;;;29.63;34.17
71915;BME280;60387;49.994;14.660;2023-07-16T01:14:21;97049.75;;;29.56;34.18
71915;BME280;60387;49.994;14.660;2023-07-16T01:16:55;97106.81;;;29.55;35.45
71915;BME280;60387;49.994;14.660;2023-07-16T01:19:28;97154.81;;;29.50;35.37
71915;BME280;60387;49.994;14.660;2023-07-16T01:30:15;97217.66;;;29.22;37.24
71915;BME280;60387;49.994;14.660;2023-07-16T01:32:49;97207.00;;;29.17;39.05
71915;BME280;60387;49.994;14.660;2023-07-16T01:35:24;97130.28;;;29.09;37.98
71915;BME280;60387;49.994;14.660;2023-07-16T01:37:58;97164.72;;;29.03;37.29
71915;BME280;60387;49.994;14.660;2023-07-16T01:40:32;97220.59;;;28.99;37.59
71915;BME280;60387;49.994;14.660;2023-07-16T01:43:05;97202.38;;;28.95;37.14
71915;BME280;60387;49.994;14.660;2023-07-16T01:45:39;97167.38;;;28.90;37.61
71915;BME280;60387;49.994;14.660;2023-07-16T01:48:34;97187.78;;;28.87;36.66
71915;BME280;60387;49.994;14.660;2023-07-16T01:51:08;97201.00;;;28.83;35.97
71915;BME280;60387;49.994;14.660;2023-07-16T01:53:41;97198.69;;;28.82;35.80
71915;BME280;60387;49.994;14.660;2023-07-16T01:56:15;97206.25;;;28.81;36.17
71915;BME280;60387;49.994;14.660;2023-07-16T01:58:48;97199.09;;;28.80;36.71
71915;BME280;60387;49.994;14.660;2023-07-16T02:01:21;97210.75;;;28.75;35.77
71915;BME280;60387;49.994;14.660;2023-07-16T02:03:54;97202.50;;;28.72;35.23
71915;BME280;60387;49.994;14.660;2023-07-16T02:06:28;97205.69;;;28.70;36.42
71915;BME280;60387;49.994;14.660;2023-07-16T02:09:01;97223.31;;;28.67;37.04
71915;BME280;60387;49.994;14.660;2023-07-16T02:11:34;97226.25;;;28.60;36.31
71915;BME280;60387;49.994;14.660;2023-07-16T02:14:08;97240.25;;;28.57;36.98
71915;BME280;60387;49.994;14.660;2023-07-16T02:16:42;97234.69;;;28.57;35.67
71915;BME280;60387;49.994;14.660;2023-07-16T02:19:15;97246.53;;;28.61;36.97
71915;BME280;60387;49.994;14.660;2023-07-16T02:21:48;97262.03;;;28.62;35.98
71915;BME280;60387;49.994;14.660;2023-07-16T02:24:21;97257.66;;;28.61;35.50
71915;BME280;60387;49.994;14.660;2023-07-16T02:26:55;97252.53;;;28.59;35.93
71915;BME280;60387;49.994;14.660;2023-07-16T02:29:28;97262.09;;;28.58;36.02
71915;BME280;60387;49.994;14.660;2023-07-16T02:32:01;97255.41;;;28.56;35.31
71915;BME280;60387;49.994;14.660;2023-07-16T02:34:35;97276.50;;;28.57;36.07
71915;BME280;60387;49.994;14.660;2023-07-16T02:37:08;97290.50;;;28.53;36.36
71915;BME280;60387;49.994;14.660;2023-07-16T02:39:43;97302.50;;;28.50;35.88
71915;BME280;60387;49.994;14.660;2023-07-16T02:42:17;97281.25;;;28.37;36.49
71915;BME280;60387;49.994;14.660;2023-07-16T02:44:50;97308.97;;;28.44;36.56
71915;BME280;60387;49.994;14.660;2023-07-16T02:47:23;97322.22;;;28.40;37.23
71915;BME280;60387;49.994;14.660;2023-07-16T02:49:57;97335.06;;;28.34;37.19
71915;BME280;60387;49.994;14.660;2023-07-16T02:52:30;97334.31;;;28.30;37.17
71915;BME280;60387;49.994;14.660;2023-07-16T02:55:04;97332.00;;;28.25;36.15
71915;BME280;60387;49.994;14.660;2023-07-16T02:57:37;97336.44;;;28.22;36.52
71915;BME280;60387;49.994;14.660;2023-07-16T03:00:11;97333.13;;;28.08;36.47
71915;BME280;60387;49.994;14.660;2023-07-16T03:02:44;97343.34;;;28.14;36.42
71915;BME280;60387;49.994;14.660;2023-07-16T03:05:17;97347.03;;;28.08;38.30
71915;BME280;60387;49.994;14.660;2023-07-16T03:07:51;97364.13;;;28.10;38.12
71915;BME280;60387;49.994;14.660;2023-07-16T03:10:24;97356.97;;;28.09;38.32
71915;BME280;60387;49.994;14.660;2023-07-16T03:12:57;97345.06;;;28.08;37.76
71915;BME280;60387;49.994;14.660;2023-07-16T03:15:31;97340.25;;;28.09;37.97
71915;BME280;60387;49.994;14.660;2023-07-16T03:18:04;97329.53;;;28.07;38.60
71915;BME280;60387;49.994;14.660;2023-07-16T03:20:37;97350.63;;;28.08;37.97
71915;BME280;60387;49.994;14.660;2023-07-16T03:23:11;97365.31;;;28.09;38.42
71915;BME280;60387;49.994;14.660;2023-07-16T03:25:44;97385.63;;;28.09;38.73
71915;BME280;60387;49.994;14.660;2023-07-16T03:28:18;97397.97;;;28.08;37.91
71915;BME280;60387;49.994;14.660;2023-07-16T03:30:51;97395.72;;;28.00;38.31
71915;BME280;60387;49.994;14.660;2023-07-16T03:33:24;97430.91;;;28.13;38.98
71915;BME280;60387;49.994;14.660;2023-07-16T03:35:58;97441.22;;;28.16;38.61
71915;BME280;60387;49.994;14.660;2023-07-16T03:38:31;97438.06;;;28.14;38.00
71915;BME280;60387;49.994;14.660;2023-07-16T03:41:04;97435.56;;;28.20;38.09
71915;BME280;60387;49.994;14.660;2023-07-16T03:43:38;97426.81;;;28.21;38.50
71915;BME280;60387;49.994;14.660;2023-07-16T03:46:11;97398.28;;;28.14;37.66
71915;BME280;60387;49.994;14.660;2023-07-16T03:48:44;97410.03;;;28.25;38.63
71915;BME280;60387;49.994;14.660;2023-07-16T03:51:18;97432.38;;;28.21;38.90
71915;BME280;60387;49.994;14.660;2023-07-16T03:53:51;97444.69;;;28.24;39.07
71915;BME280;60387;49.994;14.660;2023-07-16T03:56:24;97463.38;;;28.23;39.57
71915;BME280;60387;49.994;14.660;2023-07-16T03:58:58;97453.94;;;28.17;39.26
71915;BME280;60387;49.994;14.660;2023-07-16T04:01:34;97456.22;;;28.22;38.27
71915;BME280;60387;49.994;14.660;2023-07-16T04:04:07;97460.19;;;28.25;39.03
71915;BME280;60387;49.994;14.660;2023-07-16T04:06:40;97455.13;;;28.43;38.39
71915;BME280;60387;49.994;14.660;2023-07-16T04:09:14;97461.16;;;28.84;38.85
71915;BME280;60387;49.994;14.660;2023-07-16T04:11:47;97477.44;;;29.08;38.26
71915;BME280;60387;49.994;14.660;2023-07-16T04:14:20;97467.38;;;29.14;38.36
71915;BME280;60387;49.994;14.660;2023-07-16T04:16:54;97500.91;;;29.11;37.66
71915;BME280;60387;49.994;14.660;2023-07-16T04:19:28;97520.16;;;29.05;37.98
71915;BME280;60387;49.994;14.660;2023-07-16T04:22:01;97546.00;;;29.29;37.05
71915;BME280;60387;49.994;14.660;2023-07-16T04:24:34;97533.44;;;29.40;37.58
71915;BME280;60387;49.994;14.660;2023-07-16T04:27:08;97539.44;;;29.39;37.88
71915;BME280;60387;49.994;14.660;2023-07-16T04:29:41;97558.75;;;29.30;38.18
71915;BME280;60387;49.994;14.660;2023-07-16T04:32:14;97557.31;;;29.22;39.01
71915;BME280;60387;49.994;14.660;2023-07-16T04:34:47;97563.47;;;29.13;40.10
71915;BME280;60387;49.994;14.660;2023-07-16T04:37:21;97579.66;;;28.99;41.03
71915;BME280;60387;49.994;14.660;2023-07-16T04:39:54;97593.88;;;28.81;41.39
71915;BME280;60387;49.994;14.660;2023-07-16T04:42:27;97585.41;;;28.62;40.65
71915;BME280;60387;49.994;14.660;2023-07-16T04:45:01;97602.38;;;28.48;39.50
71915;BME280;60387;49.994;14.660;2023-07-16T04:47:34;97612.81;;;28.40;39.75
71915;BME280;60387;49.994;14.660;2023-07-16T04:50:07;97628.03;;;28.32;41.18
71915;BME280;60387;49.994;14.660;2023-07-16T04:52:41;97630.50;;;28.27;40.31
71915;BME280;60387;49.994;14.660;2023-07-16T04:55:14;97623.88;;;28.17;42.93
71915;BME280;60387;49.994;14.660;2023-07-16T04:57:47;97627.22;;;28.05;44.03
71915;BME280;60387;49.994;14.660;2023-07-16T05:00:21;97616.28;;;27.91;43.62
71915;BME280;60387;49.994;14.660;2023-07-16T05:02:54;97617.63;;;27.76;44.57
71915;BME280;60387;49.994;14.660;2023-07-16T05:05:27;97628.16;;;27.58;44.04
71915;BME280;60387;49.994;14.660;2023-07-16T05:08:01;97653.72;;;27.46;46.66
71915;BME280;60387;49.994;14.660;2023-07-16T05:10:34;97656.22;;;27.34;45.81
71915;BME280;60387;49.994;14.660;2023-07-16T05:13:07;97669.84;;;27.22;43.89
71915;BME280;60387;49.994;14.660;2023-07-16T05:15:43;97662.78;;;27.14;43.55
71915;BME280;60387;49.994;14.660;2023-07-16T05:18:16;97666.72;;;27.13;44.73
71915;BME280;60387;49.994;14.660;2023-07-16T05:20:50;97656.84;;;27.05;43.99
71915;BME280;60387;49.994;14.660;2023-07-16T05:23:23;97649.34;;;27.02;44.85
71915;BME280;60387;49.994;14.660;2023-07-16T05:25:57;97635.88;;;26.97;46.39
71915;BME280;60387;49.994;14.660;2023-07-16T05:28:30;97624.06;;;26.86;45.63
71915;BME280;60387;49.994;14.660;2023-07-16T05:31:03;97629.69;;;26.75;44.25
71915;BME280;60387;49.994;14.660;2023-07-16T05:33:37;97600.34;;;26.71;47.69
71915;BME280;60387;49.994;14.660;2023-07-16T05:36:10;97597.25;;;26.58;45.10
71915;BME280;60387;49.994;14.660;2023-07-16T05:38:43;97589.44;;;26.39;45.52
71915;BME280;60387;49.994;14.660;2023-07-16T05:41:16;97576.00;;;26.31;46.34
71915;BME280;60387;49.994;14.660;2023-07-16T05:43:50;97587.56;;;26.22;45.25
71915;BME280;60387;49.994;14.660;2023-07-16T05:46:23;97610.97;;;26.21;44.90
71915;BME280;60387;49.994;14.660;2023-07-16T05:48:56;97614.56;;;26.22;45.19
71915;BME280;60387;49.994;14.660;2023-07-16T05:51:29;97613.34;;;26.26;44.76
71915;BME280;60387;49.994;14.660;2023-07-16T05:54:03;97602.63;;;26.28;43.88
71915;BME280;60387;49.994;14.660;2023-07-16T05:56:36;97610.09;;;26.38;44.25
71915;BME280;60387;49.994;14.660;2023-07-16T05:59:10;97610.44;;;26.44;43.94
71915;BME280;60387;49.994;14.660;2023-07-16T06:01:43;97576.75;;;26.35;44.49
71915;BME280;60387;49.994;14.660;2023-07-16T06:04:16;97584.69;;;26.40;44.05
71915;BME280;60387;49.994;14.660;2023-07-16T06:06:49;97575.91;;;26.45;44.21
71915;BME280;60387;49.994;14.660;2023-07-16T06:09:23;97581.47;;;26.41;44.56
71915;BME280;60387;49.994;14.660;2023-07-16T06:11:56;97573.94;;;26.42;46.31
71915;BME280;60387;49.994;14.660;2023-07-16T06:14:29;97583.47;;;26.44;45.04
71915;BME280;60387;49.994;14.660;2023-07-16T06:17:03;97566.78;;;26.44;46.35
71915;BME280;60387;49.994;14.660;2023-07-16T06:19:36;97578.31;;;26.43;44.45
71915;BME280;60387;49.994;14.660;2023-07-16T06:22:09;97579.84;;;26.47;45.10
71915;BME280;60387;49.994;14.660;2023-07-16T06:24:43;97570.31;;;26.48;45.61
71915;BME280;60387;49.994;14.660;2023-07-16T06:27:16;97547.69;;;26.50;49.78
71915;BME280;60387;49.994;14.660;2023-07-16T06:29:49;97551.31;;;26.43;47.52
71915;BME280;60387;49.994;14.660;2023-07-16T06:32:22;97574.34;;;26.40;46.75
71915;BME280;60387;49.994;14.660;2023-07-16T06:34:56;97592.16;;;26.50;48.44
71915;BME280;60387;49.994;14.660;2023-07-16T06:37:29;97589.72;;;26.59;48.01
71915;BME280;60387;49.994;14.660;2023-07-16T06:40:03;97587.59;;;26.77;48.55
71915;BME280;60387;49.994;14.660;2023-07-16T06:42:36;97577.03;;;27.02;48.85
71915;BME280;60387;49.994;14.660;2023-07-16T06:45:09;97580.78;;;27.28;48.39
71915;BME280;60387;49.994;14.660;2023-07-16T06:47:43;97588.44;;;27.54;46.75
71915;BME280;60387;49.994;14.660;2023-07-16T06:50:16;97595.38;;;27.76;47.31
71915;BME280;60387;49.994;14.660;2023-07-16T06:52:49;97602.06;;;28.12;46.66
71915;BME280;60387;49.994;14.660;2023-07-16T06:55:23;97609.47;;;28.52;47.26
71915;BME280;60387;49.994;14.660;2023-07-16T06:57:56;97600.31;;;28.78;46.21
71915;BME280;60387;49.994;14.660;2023-07-16T07:00:29;97597.00;;;29.10;45.35
71915;BME280;60387;49.994;14.660;2023-07-16T07:03:02;97595.84;;;29.30;44.81
71915;BME280;60387;49.994;14.660;2023-07-16T07:05:36;97586.59;;;29.33;44.66
71915;BME280;60387;49.994;14.660;2023-07-16T07:08:09;97618.16;;;29.53;43.72
71915;BME280;60387;49.994;14.660;2023-07-16T07:10:42;97611.31;;;29.58;43.66
71915;BME280;60387;49.994;14.660;2023-07-16T07:13:16;97627.59;;;29.59;44.33
71915;BME280;60387;49.994;14.660;2023-07-16T07:15:49;97620.81;;;29.60;44.31
71915;BME280;60387;49.994;14.660;2023-07-16T07:18:22;97621.03;;;29.69;44.63
71915;BME280;60387;49.994;14.660;2023-07-16T07:20:56;97627.56;;;29.82;43.98
71915;BME280;60387;49.994;14.660;2023-07-16T07:23:29;97639.31;;;30.13;44.41
71915;BME280;60387;49.994;14.660;2023-07-16T07:26:02;97644.56;;;30.66;44.64
71915;BME280;60387;49.994;14.660;2023-07-16T07:28:35;97652.06;;;31.20;43.30
71915;BME280;60387;49.994;14.660;2023-07-16T07:31:09;97643.81;;;31.45;42.30
71915;BME280;60387;49.994;14.660;2023-07-16T07:33:42;97630.16;;;31.47;41.93
71915;BME280;60387;49.994;14.660;2023-07-16T07:36:15;97635.22;;;31.52;41.52
71915;BME280;60387;49.994;14.660;2023-07-16T07:38:49;97649.81;;;31.59;41.32
71915;BME280;60387;49.994;14.660;2023-07-16T07:41:22;97654.91;;;31.64;40.99
71915;BME280;60387;49.994;14.660;2023-07-16T07:43:55;97658.84;;;31.67;40.88
71915;BME280;60387;49.994;14.660;2023-07-16T07:46:29;97662.00;;;31.69;40.91
71915;BME280;60387;49.994;14.660;2023-07-16T07:49:02;97656.47;;;31.65;40.99
71915;BME280;60387;49.994;14.660;2023-07-16T07:51:35;97669.78;;;31.61;40.49
71915;BME280;60387;49.994;14.660;2023-07-16T07:54:08;97680.81;;;31.52;40.96
71915;BME280;60387;49.994;14.660;2023-07-16T07:56:45;97681.19;;;31.38;40.64
71915;BME280;60387;49.994;14.660;2023-07-16T07:59:18;97676.66;;;31.28;41.12
71915;BME280;60387;49.994;14.660;2023-07-16T08:01:52;97687.69;;;31.20;40.85
71915;BME280;60387;49.994;14.660;2023-07-16T08:04:25;97692.19;;;31.13;41.58
71915;BME280;60387;49.994;14.660;2023-07-16T08:06:58;97692.69;;;31.08;41.63
71915;BME280;60387;49.994;14.660;2023-07-16T08:09:31;97690.53;;;31.00;41.21
71915;BME280;60387;49.994;14.660;2023-07-16T08:12:05;97692.59;;;30.96;41.84
71915;BME280;60387;49.994;14.660;2023-07-16T08:14:38;97701.59;;;30.88;41.43
71915;BME280;60387;49.994;14.660;2023-07-16T08:17:12;97700.88;;;30.84;41.69
71915;BME280;60387;49.994;14.660;2023-07-16T08:19:45;97693.72;;;30.83;41.33
71915;BME280;60387;49.994;14.660;2023-07-16T08:22:18;97698.88;;;30.84;41.42
71915;BME280;60387;49.994;14.660;2023-07-16T08:24:52;97699.31;;;30.83;41.57
71915;BME280;60387;49.994;14.660;2023-07-16T08:27:25;97700.13;;;30.83;41.31
71915;BME280;60387;49.994;14.660;2023-07-16T08:29:58;97716.03;;;30.86;41.30
71915;BME280;60387;49.994;14.660;2023-07-16T08:32:32;97708.84;;;30.85;41.30
71915;BME280;60387;49.994;14.660;2023-07-16T08:35:05;97700.03;;;30.87;40.86
71915;BME280;60387;49.994;14.660;2023-07-16T08:37:39;97704.84;;;30.86;41.11
71915;BME280;60387;49.994;14.660;2023-07-16T08:40:12;97700.13;;;30.83;41.23
71915;BME280;60387;49.994;14.660;2023-07-16T08:42:46;97706.94;;;30.82;41.27
71915;BME280;60387;49.994;14.660;2023-07-16T08:45:22;97716.25;;;30.76;41.14
71915;BME280;60387;49.994;14.660;2023-07-16T08:47:58;97715.13;;;30.73;41.13
71915;BME280;60387;49.994;14.660;2023-07-16T08:50:32;97714.88;;;30.68;41.39
71915;BME280;60387;49.994;14.660;2023-07-16T08:53:07;97706.16;;;30.62;41.63
71915;BME280;60387;49.994;14.660;2023-07-16T08:55:47;97717.50;;;30.55;42.31
71915;BME280;60387;49.994;14.660;2023-07-16T08:58:23;97707.91;;;30.37;42.54
71915;BME280;60387;49.994;14.660;2023-07-16T09:00:56;97723.38;;;30.41;42.15
71915;BME280;60387;49.994;14.660;2023-07-16T09:03:31;97726.53;;;30.43;42.56
71915;BME280;60387;49.994;14.660;2023-07-16T09:06:05;97726.47;;;30.47;42.64
71915;BME280;60387;49.994;14.660;2023-07-16T09:08:38;97718.16;;;30.43;42.16
71915;BME280;60387;49.994;14.660;2023-07-16T09:11:12;97732.41;;;30.49;42.24
71915;BME280;60387;49.994;14.660;2023-07-16T09:13:46;97729.25;;;30.47;41.40
71915;BME280;60387;49.994;14.660;2023-07-16T09:16:20;97740.03;;;30.48;41.42
71915;BME280;60387;49.994;14.660;2023-07-16T09:18:53;97741.16;;;30.51;41.06
71915;BME280;60387;49.994;14.660;2023-07-16T09:21:27;97746.31;;;30.52;40.80
71915;BME280;60387;49.994;14.660;2023-07-16T09:24:00;97744.59;;;30.58;40.88
71915;BME280;60387;49.994;14.660;2023-07-16T09:26:36;97740.47;;;30.66;41.13
71915;BME280;60387;49.994;14.660;2023-07-16T09:29:10;97737.34;;;30.80;41.17
71915;BME280;60387;49.994;14.660;2023-07-16T09:34:29;97745.25;;;31.01;39.92
71915;BME280;60387;49.994;14.660;2023-07-16T09:37:04;97748.41;;;31.03;40.00
71915;BME280;60387;49.994;14.660;2023-07-16T09:39:38;97753.03;;;31.09;39.09
71915;BME280;60387;49.994;14.660;2023-07-16T09:42:12;97761.59;;;31.22;38.72
71915;BME280;60387;49.994;14.660;2023-07-16T09:44:47;97761.69;;;31.34;38.12
71915;BME280;60387;49.994;14.660;2023-07-16T09:47:21;97764.16;;;31.48;38.36
71915;BME280;60387;49.994;14.660;2023-07-16T09:49:54;97775.47;;;31.77;37.91
71915;BME280;60387;49.994;14.660;2023-07-16T09:52:27;97774.63;;;32.08;37.29
71915;BME280;60387;49.994;14.660;2023-07-16T09:55:05;97784.91;;;32.43;36.56
71915;BME280;60387;49.994;14.660;2023-07-16T09:57:42;97796.03;;;32.75;34.84
71915;BME280;60387;49.994;14.660;2023-07-16T10:00:17;97797.75;;;32.98;34.76
71915;BME280;60387;49.994;14.660;2023-07-16T10:02:51;97792.81;;;33.14;33.73
71915;BME280;60387;49.994;14.660;2023-07-16T10:05:26;97785.56;;;33.29;33.99
71915;BME280;60387;49.994;14.660;2023-07-16T10:08:00;97794.69;;;33.46;33.39
71915;BME280;60387;49.994;14.660;2023-07-16T10:11:03;97796.69;;;33.70;33.45
71915;BME280;60387;49.994;14.660;2023-07-16T10:13:37;97792.41;;;33.91;33.52
71915;BME280;60387;49.994;14.660;2023-07-16T10:16:22;97785.75;;;33.97;33.12
71915;BME280;60387;49.994;14.660;2023-07-16T10:18:58;97796.56;;;34.33;33.80
71915;BME280;60387;49.994;14.660;2023-07-16T10:21:36;97793.22;;;34.47;31.88
71915;BME280;60387;49.994;14.660;2023-07-16T10:24:16;97788.59;;;34.53;31.11
71915;BME280;60387;49.994;14.660;2023-07-16T10:26:50;97790.16;;;34.54;30.63
71915;BME280;60387;49.994;14.660;2023-07-16T10:29:23;97772.25;;;34.60;30.21
71915;BME280;60387;49.994;14.660;2023-07-16T10:31:58;97794.84;;;34.69;29.30
71915;BME280;60387;49.994;14.660;2023-07-16T10:34:31;97782.72;;;34.81;29.80
71915;BME280;60387;49.994;14.660;2023-07-16T10:37:05;97788.06;;;35.10;30.07
71915;BME280;60387;49.994;14.660;2023-07-16T10:39:49;97790.94;;;35.49;29.61
71915;BME280;60387;49.994;14.660;2023-07-16T10:42:24;97794.19;;;35.78;28.76
71915;BME280;60387;49.994;14.660;2023-07-16T10:44:59;97781.56;;;36.00;28.36
71915;BME280;60387;49.994;14.660;2023-07-16T10:47:34;97799.72;;;36.08;27.87
71915;BME280;60387;49.994;14.660;2023-07-16T10:50:09;97802.38;;;35.94;27.88
71915;BME280;60387;49.994;14.660;2023-07-16T10:52:42;97801.72;;;35.81;29.20
71915;BME280;60387;49.994;14.660;2023-07-16T10:55:16;97794.97;;;35.78;28.60
71915;BME280;60387;49.994;14.660;2023-07-16T10:57:50;97798.88;;;35.72;29.11
71915;BME280;60387;49.994;14.660;2023-07-16T11:00:23;97804.47;;;35.63;28.80
71915;BME280;60387;49.994;14.660;2023-07-16T11:02:56;97790.34;;;35.54;28.93
71915;BME280;60387;49.994;14.660;2023-07-16T11:05:30;97807.53;;;35.47;29.16
71915;BME280;60387;49.994;14.660;2023-07-16T11:08:03;97814.88;;;35.44;29.19
71915;BME280;60387;49.994;14.660;2023-07-16T11:10:36;97807.63;;;35.34;29.04
71915;BME280;60387;49.994;14.660;2023-07-16T11:13:10;97819.56;;;35.17;28.92
71915;BME280;60387;49.994;14.660;2023-07-16T11:15:43;97815.72;;;35.02;29.37
71915;BME280;60387;49.994;14.660;2023-07-16T11:18:16;97828.91;;;34.84;28.17
71915;BME280;60387;49.994;14.660;2023-07-16T11:20:51;97820.88;;;34.61;28.97
71915;BME280;60387;49.994;14.660;2023-07-16T11:23:24;97825.34;;;34.37;29.33
71915;BME280;60387;49.994;14.660;2023-07-16T11:26:01;97842.28;;;34.12;29.79
71915;BME280;60387;49.994;14.660;2023-07-16T11:28:40;97830.84;;;33.94;29.86
71915;BME280;60387;49.994;14.660;2023-07-16T11:31:14;97839.28;;;33.69;31.05
71915;BME280;60387;49.994;14.660;2023-07-16T11:33:48;97817.28;;;33.42;31.81
71915;BME280;60387;49.994;14.660;2023-07-16T11:36:21;97827.19;;;33.06;32.28
71915;BME280;60387;49.994;14.660;2023-07-16T11:38:54;97833.59;;;32.65;32.45
71915;BME280;60387;49.994;14.660;2023-07-16T11:41:27;97835.22;;;32.34;32.83
71915;BME280;60387;49.994;14.660;2023-07-16T11:44:01;97826.56;;;32.13;33.00
71915;BME280;60387;49.994;14.660;2023-07-16T11:46:35;97830.88;;;32.01;33.11
71915;BME280;60387;49.994;14.660;2023-07-16T11:49:08;97831.50;;;31.93;33.53
71915;BME280;60387;49.994;14.660;2023-07-16T11:51:41;97823.69;;;31.84;34.00
71915;BME280;60387;49.994;14.660;2023-07-16T11:54:14;97822.69;;;31.78;33.95
71915;BME280;60387;49.994;14.660;2023-07-16T11:56:48;97825.28;;;31.69;33.69
71915;BME280;60387;49.994;14.660;2023-07-16T11:59:21;97814.22;;;31.62;33.70
71915;BME280;60387;49.994;14.660;2023-07-16T12:01:54;97799.25;;;31.53;33.86
71915;BME280;60387;49.994;14.660;2023-07-16T12:04:28;97809.66;;;31.52;33.56
71915;BME280;60387;49.994;14.660;2023-07-16T12:07:01;97789.53;;;31.41;33.19
71915;BME280;60387;49.994;14.660;2023-07-16T12:09:35;97798.72;;;31.42;33.68
71915;BME280;60387;49.994;14.660;2023-07-16T12:12:08;97797.16;;;31.41;33.17
71915;BME280;60387;49.994;14.660;2023-07-16T12:14:41;97804.91;;;31.33;32.78
71915;BME280;60387;49.994;14.660;2023-07-16T12:17:15;97795.91;;;31.26;32.67
71915;BME280;60387;49.994;14.660;2023-07-16T12:19:48;97790.47;;;31.19;33.04
71915;BME280;60387;49.994;14.660;2023-07-16T12:22:22;97790.88;;;31.17;32.87
71915;BME280;60387;49.994;14.660;2023-07-16T12:24:55;97793.59;;;31.21;33.54
71915;BME280;60387;49.994;14.660;2023-07-16T12:27:29;97793.59;;;31.21;33.12
71915;BME280;60387;49.994;14.660;2023-07-16T12:30:02;97795.97;;;31.23;33.29
71915;BME280;60387;49.994;14.660;2023-07-16T12:32:36;97797.81;;;31.29;33.32
71915;BME280;60387;49.994;14.660;2023-07-16T12:35:09;97807.91;;;31.42;33.24
71915;BME280;60387;49.994;14.660;2023-07-16T12:37:43;97815.53;;;31.58;33.03
71915;BME280;60387;49.994;14.660;2023-07-16T12:40:16;97799.19;;;31.72;33.08
71915;BME280;60387;49.994;14.660;2023-07-16T12:42:49;97804.16;;;31.81;33.04
71915;BME280;60387;49.994;14.660;2023-07-16T12:45:23;97797.63;;;31.87;33.20
71915;BME280;60387;49.994;14.660;2023-07-16T12:47:56;97782.88;;;31.99;32.59
71915;BME280;60387;49.994;14.660;2023-07-16T12:50:29;97797.31;;;32.14;32.56
71915;BME280;60387;49.994;14.660;2023-07-16T12:53:03;97798.88;;;32.31;32.77
71915;BME280;60387;49.994;14.660;2023-07-16T12:55:36;97781.75;;;32.41;32.26
71915;BME280;60387;49.994;14.660;2023-07-16T12:58:09;97774.72;;;32.49;32.27
71915;BME280;60387;49.994;14.660;2023-07-16T13:00:43;97783.03;;;32.53;32.65
71915;BME280;60387;49.994;14.660;2023-07-16T13:03:16;97795.25;;;32.59;31.89
71915;BME280;60387;49.994;14.660;2023-07-16T13:05:49;97786.06;;;32.58;31.04
71915;BME280;60387;49.994;14.660;2023-07-16T13:08:23;97798.28;;;32.52;31.86
71915;BME280;60387;49.994;14.660;2023-07-16T13:10:56;97796.31;;;32.65;31.61
71915;BME280;60387;49.994;14.660;2023-07-16T13:13:30;97781.13;;;32.91;32.58
71915;BME280;60387;49.994;14.660;2023-07-16T13:16:03;97790.28;;;33.20;31.71
71915;BME280;60387;49.994;14.660;2023-07-16T13:18:37;97782.75;;;33.42;31.35
71915;BME280;60387;49.994;14.660;2023-07-16T13:21:11;97785.00;;;33.72;30.56
71915;BME280;60387;49.994;14.660;2023-07-16T13:23:44;97783.72;;;33.98;30.77
71915;BME280;60387;49.994;14.660;2023-07-16T13:26:17;97780.88;;;34.23;30.15
71915;BME280;60387;49.994;14.660;2023-07-16T13:28:50;97776.75;;;34.36;30.08
71915;BME280;60387;49.994;14.660;2023-07-16T13:31:24;97768.06;;;34.43;30.12
71915;BME280;60387;49.994;14.660;2023-07-16T13:33:57;97766.75;;;34.57;30.09
71915;BME280;60387;49.994;14.660;2023-07-16T13:36:30;97769.84;;;34.71;29.42